createdAt,value
2022-08-17T00:02:26.533Z,5.37
2022-08-17T00:04:54.757Z,6.10
2022-08-17T00:07:22.188Z,7.33
2022-08-17T00:09:49.227Z,5.83
2022-08-17T00:12:42.595Z,5.90
2022-08-17T00:15:04.520Z,6.27
2022-08-17T00:17:31.306Z,5.80
2022-08-17T00:19:58.104Z,6.23
2022-08-17T00:22:33.752Z,5.83
2022-08-17T00:25:05.407Z,5.40
2022-08-17T00:27:32.163Z,5.73
2022-08-17T00:29:59.066Z,5.73
2022-08-17T00:33:14.624Z,6.00
2022-08-17T00:35:14.884Z,6.20
2022-08-17T00:37:42.061Z,5.43
2022-08-17T00:40:10.632Z,5.70
2022-08-17T00:42:37.517Z,6.17
2022-08-17T00:45:05.968Z,5.67
2022-08-17T00:47:32.879Z,5.63
2022-08-17T00:49:59.850Z,5.63
2022-08-17T00:52:32.328Z,6.43
2022-08-17T00:54:59.418Z,5.83
2022-08-17T00:57:29.006Z,6.07
2022-08-17T01:00:02.677Z,7.33
2022-08-17T01:02:36.693Z,5.87
2022-08-17T01:05:18.436Z,6.07
2022-08-17T01:07:46.696Z,6.17
2022-08-17T01:10:57.509Z,6.20
2022-08-17T01:13:04.756Z,6.07
2022-08-17T01:15:34.807Z,7.90
2022-08-17T01:18:02.260Z,6.40
2022-08-17T01:20:29.536Z,6.17
2022-08-17T01:22:56.355Z,6.50
2022-08-17T01:25:23.305Z,6.33
2022-08-17T01:27:50.065Z,6.83
2022-08-17T01:30:57.241Z,5.80
2022-08-17T01:33:04.580Z,5.63
2022-08-17T01:35:31.765Z,6.27
2022-08-17T01:37:58.780Z,5.63
2022-08-17T01:40:31.218Z,5.97
2022-08-17T01:43:03.547Z,6.33
2022-08-17T01:45:33.042Z,5.67
2022-08-17T01:48:00.318Z,6.33
2022-08-17T01:50:28.726Z,5.40
2022-08-17T01:52:57.261Z,5.40
2022-08-17T01:55:27.570Z,6.33
2022-08-17T01:57:54.456Z,6.13
2022-08-17T02:00:22.328Z,5.93
2022-08-17T02:02:49.266Z,5.77
2022-08-17T02:05:16.302Z,6.07
2022-08-17T02:07:59.762Z,5.60
2022-08-17T02:10:33.755Z,5.83
2022-08-17T02:13:01.973Z,5.57
2022-08-17T02:15:29.123Z,6.30
2022-08-17T02:17:55.925Z,5.97
2022-08-17T02:20:41.316Z,6.73
2022-08-17T02:23:10.503Z,6.10
2022-08-17T02:25:38.565Z,6.87
2022-08-17T02:28:05.536Z,6.37
2022-08-17T02:31:01.181Z,6.37
2022-08-17T02:33:20.374Z,7.50
2022-08-17T02:35:48.538Z,5.87
2022-08-17T02:38:15.515Z,6.53
2022-08-17T02:40:42.297Z,6.37
2022-08-17T02:43:13.685Z,6.23
2022-08-17T02:45:40.504Z,6.20
2022-08-17T02:48:07.402Z,6.40
2022-08-17T02:50:34.376Z,6.13
2022-08-17T02:53:01.602Z,5.90
2022-08-17T02:55:31.288Z,5.90
2022-08-17T02:57:58.036Z,5.80
2022-08-17T03:00:28.537Z,6.00
2022-08-17T03:03:00.104Z,6.17
2022-08-17T03:05:28.254Z,6.03
2022-08-17T03:07:55.217Z,6.87
2022-08-17T03:10:22.420Z,6.67
2022-08-17T03:12:50.264Z,6.90
2022-08-17T03:15:18.822Z,5.97
2022-08-17T03:17:46.077Z,5.80
2022-08-17T03:20:13.308Z,5.33
2022-08-17T03:22:43.145Z,5.83
2022-08-17T03:25:16.661Z,6.03
2022-08-17T03:27:48.230Z,5.63
2022-08-17T03:30:18.448Z,6.90
2022-08-17T03:33:00.455Z,6.17
2022-08-17T03:35:29.556Z,6.17
2022-08-17T03:38:00.245Z,5.47
2022-08-17T03:40:34.602Z,6.10
2022-08-17T03:43:15.441Z,5.93
2022-08-17T03:46:01.365Z,5.93
2022-08-17T03:48:46.902Z,5.60
2022-08-17T03:51:36.134Z,6.10
2022-08-17T03:54:22.396Z,5.83
2022-08-17T03:57:00.339Z,5.77
2022-08-17T03:59:27.327Z,7.37
2022-08-17T04:01:56.904Z,7.47
2022-08-17T04:04:27.424Z,7.77
2022-08-17T04:06:54.918Z,7.77
2022-08-17T04:09:21.691Z,6.23
2022-08-17T04:11:48.605Z,7.13
2022-08-17T04:14:15.485Z,7.87
2022-08-17T04:16:42.445Z,8.10
2022-08-17T04:19:09.166Z,8.33
2022-08-17T04:21:36.108Z,9.33
2022-08-17T04:24:03.321Z,7.93
2022-08-17T04:26:52.226Z,9.80
2022-08-17T04:29:17.756Z,9.50
2022-08-17T04:31:44.889Z,8.53
2022-08-17T04:34:12.524Z,8.77
2022-08-17T04:36:39.258Z,8.33
2022-08-17T04:39:06.090Z,8.37
2022-08-17T04:41:52.494Z,8.63
2022-08-17T04:44:28.360Z,8.50
2022-08-17T04:47:04.305Z,8.30
2022-08-17T04:49:32.476Z,8.50
2022-08-17T04:52:04.356Z,8.50
2022-08-17T04:54:31.539Z,8.00
2022-08-17T04:56:58.404Z,8.27
2022-08-17T04:59:25.185Z,7.90
2022-08-17T05:01:52.265Z,8.23
2022-08-17T05:04:35.008Z,9.77
2022-08-17T05:07:04.448Z,8.50
2022-08-17T05:09:31.528Z,10.23
2022-08-17T05:12:01.160Z,9.43
2022-08-17T05:14:33.336Z,7.83
2022-08-17T05:17:01.240Z,8.10
2022-08-17T05:19:28.789Z,9.07
2022-08-17T05:21:55.619Z,8.20
2022-08-17T05:24:43.251Z,7.90
2022-08-17T05:27:09.336Z,7.97
2022-08-17T05:29:36.860Z,8.00
2022-08-17T05:32:38.145Z,8.23
2022-08-17T05:35:00.989Z,11.63
2022-08-17T05:37:28.005Z,7.73
2022-08-17T05:39:54.887Z,7.80
2022-08-17T05:42:21.892Z,6.43
2022-08-17T05:44:48.749Z,8.47
2022-08-17T05:47:15.606Z,6.87
2022-08-17T05:49:42.442Z,9.13
2022-08-17T05:52:23.483Z,5.83
2022-08-17T05:55:09.084Z,5.67
2022-08-17T05:57:53.009Z,5.97
2022-08-17T06:00:30.782Z,5.60
2022-08-17T06:03:07.111Z,6.80
2022-08-17T06:05:42.928Z,6.87
2022-08-17T06:08:18.679Z,6.20
2022-08-17T06:10:53.165Z,6.47
2022-08-17T06:13:22.782Z,5.60
2022-08-17T06:15:56.421Z,5.03
2022-08-17T06:18:25.607Z,9.23
2022-08-17T06:20:56.024Z,9.20
2022-08-17T06:23:30.381Z,9.63
2022-08-17T06:25:59.619Z,5.57
2022-08-17T06:28:47.391Z,6.47
2022-08-17T06:31:27.419Z,6.33
2022-08-17T06:33:55.223Z,7.60
2022-08-17T06:36:34.043Z,9.07
2022-08-17T06:39:16.341Z,6.43
2022-08-17T06:41:43.527Z,6.10
2022-08-17T06:44:50.279Z,5.57
2022-08-17T06:47:09.035Z,5.33
2022-08-17T06:49:35.799Z,5.23
2022-08-17T06:52:42.173Z,4.70
2022-08-17T06:55:18.766Z,5.30
2022-08-17T06:57:49.565Z,5.77
2022-08-17T07:00:18.450Z,6.93
2022-08-17T07:02:52.000Z,4.77
2022-08-17T07:05:39.392Z,4.67
2022-08-17T07:08:18.579Z,5.23
2022-08-17T07:10:54.666Z,4.67
2022-08-17T07:13:29.632Z,4.33
2022-08-17T07:16:04.584Z,5.10
2022-08-17T07:18:33.179Z,4.60
2022-08-17T07:21:08.345Z,4.90
2022-08-17T07:23:45.142Z,4.83
2022-08-17T07:26:13.229Z,4.53
2022-08-17T07:28:40.199Z,4.63
2022-08-17T07:31:07.231Z,4.60
2022-08-17T07:33:36.645Z,4.60
2022-08-17T07:36:03.741Z,6.23
2022-08-17T07:38:32.529Z,5.40
2022-08-17T07:41:02.953Z,6.23
2022-08-17T07:43:38.992Z,5.30
2022-08-17T07:46:24.262Z,6.53
2022-08-17T07:48:52.576Z,4.37
2022-08-17T07:51:42.709Z,4.40
2022-08-17T07:54:15.776Z,4.07
2022-08-17T07:56:42.574Z,4.87
2022-08-17T07:59:15.532Z,4.67
2022-08-17T08:01:45.505Z,5.30
2022-08-17T08:04:20.114Z,5.83
2022-08-17T08:06:57.795Z,4.67
2022-08-17T08:09:28.787Z,4.30
2022-08-17T08:11:55.600Z,5.20
2022-08-17T08:14:32.624Z,4.83
2022-08-17T08:17:01.946Z,6.57
2022-08-17T08:19:30.871Z,4.30
2022-08-17T08:21:58.876Z,5.37
2022-08-17T08:24:36.623Z,4.32
2022-08-17T08:27:18.138Z,6.93
2022-08-17T08:29:57.645Z,5.85
2022-08-17T08:32:40.130Z,4.93
2022-08-17T08:35:08.869Z,4.30
2022-08-17T08:37:42.888Z,5.80
2022-08-17T08:40:13.184Z,4.05
2022-08-17T08:42:58.511Z,4.72
2022-08-17T08:45:32.834Z,5.18
2022-08-17T08:48:05.156Z,5.03
2022-08-17T08:50:47.553Z,5.78
2022-08-17T08:53:24.091Z,3.95
2022-08-17T08:55:50.960Z,4.28
2022-08-17T08:58:31.854Z,4.28
2022-08-17T09:01:16.811Z,3.90
2022-08-17T09:03:52.895Z,3.95
2022-08-17T09:06:38.504Z,5.35
2022-08-17T09:09:15.989Z,3.13
2022-08-17T09:12:01.803Z,4.30
2022-08-17T09:14:47.193Z,2.85
2022-08-17T09:17:18.312Z,3.20
2022-08-17T09:19:45.368Z,4.75
2022-08-17T09:22:21.337Z,3.35
2022-08-17T09:25:03.086Z,3.10
2022-08-17T09:27:35.214Z,3.05
2022-08-17T09:30:06.749Z,3.20
2022-08-17T09:32:33.545Z,3.20
2022-08-17T09:35:02.595Z,4.45
2022-08-17T09:37:35.340Z,3.25
2022-08-17T09:40:11.909Z,5.00
2022-08-17T09:42:38.842Z,3.40
2022-08-17T09:45:27.885Z,3.28
2022-08-17T09:48:18.281Z,4.10
2022-08-17T09:51:05.725Z,3.20
2022-08-17T09:53:35.716Z,3.95
2022-08-17T09:56:09.000Z,4.63
2022-08-17T09:58:56.298Z,3.92
2022-08-17T10:01:28.924Z,3.22
2022-08-17T10:04:05.487Z,3.92
2022-08-17T10:06:37.849Z,2.83
2022-08-17T10:09:14.075Z,3.33
2022-08-17T10:12:07.667Z,3.40
2022-08-17T10:14:53.303Z,3.33
2022-08-17T10:17:27.057Z,3.75
2022-08-17T10:19:59.270Z,4.05
2022-08-17T10:22:54.842Z,3.15
2022-08-17T10:25:56.726Z,3.33
2022-08-17T10:28:29.466Z,4.63
2022-08-17T10:31:17.037Z,4.25
2022-08-17T10:34:04.756Z,3.03
2022-08-17T10:36:50.354Z,3.20
2022-08-17T10:39:35.564Z,3.72
2022-08-17T10:42:30.311Z,2.67
2022-08-17T10:45:03.134Z,3.00
2022-08-17T10:47:55.541Z,3.20
2022-08-17T10:50:42.525Z,2.70
2022-08-17T10:53:09.639Z,3.28
2022-08-17T10:55:36.437Z,3.22
2022-08-17T10:58:21.057Z,4.07
2022-08-17T11:00:53.934Z,3.50
2022-08-17T11:03:22.885Z,3.65
2022-08-17T11:05:52.178Z,4.78
2022-08-17T11:08:38.352Z,5.30
2022-08-17T11:11:08.338Z,4.07
2022-08-17T11:13:53.453Z,2.90
2022-08-17T11:16:29.443Z,3.97
2022-08-17T11:19:08.578Z,2.97
2022-08-17T11:21:51.885Z,3.30
2022-08-17T11:24:18.757Z,3.60
2022-08-17T11:26:58.978Z,3.22
2022-08-17T11:29:29.826Z,4.07
2022-08-17T11:32:07.722Z,3.20
2022-08-17T11:34:38.564Z,3.20
2022-08-17T11:37:13.557Z,3.45
2022-08-17T11:40:06.023Z,3.55
2022-08-17T11:42:51.551Z,3.28
2022-08-17T11:45:32.566Z,3.58
2022-08-17T11:48:30.594Z,3.15
2022-08-17T11:51:28.446Z,3.67
2022-08-17T11:54:14.744Z,3.42
2022-08-17T11:56:48.987Z,4.13
2022-08-17T11:59:39.242Z,3.15
2022-08-17T12:02:27.983Z,3.08
2022-08-17T12:05:04.510Z,4.78
2022-08-17T12:07:41.645Z,3.85
2022-08-17T12:10:12.099Z,3.67
2022-08-17T12:12:43.416Z,3.50
2022-08-17T12:15:17.171Z,3.50
2022-08-17T12:17:52.359Z,3.72
2022-08-17T12:20:23.300Z,3.00
2022-08-17T12:22:53.422Z,3.35
2022-08-17T12:25:23.951Z,4.95
2022-08-17T12:28:04.986Z,3.78
2022-08-17T12:30:34.937Z,3.75
2022-08-17T12:33:01.712Z,3.58
2022-08-17T12:35:35.178Z,4.00
2022-08-17T12:38:03.058Z,4.10
2022-08-17T12:40:33.809Z,4.15
2022-08-17T12:43:02.192Z,3.33
2022-08-17T12:45:33.603Z,3.50
2022-08-17T12:48:23.738Z,3.30
2022-08-17T12:50:51.170Z,3.88
2022-08-17T12:53:22.143Z,3.40
2022-08-17T12:55:50.098Z,3.35
2022-08-17T12:58:22.496Z,4.35
2022-08-17T13:00:55.300Z,3.78
2022-08-17T13:03:24.388Z,3.78
2022-08-17T13:05:56.368Z,4.80
2022-08-17T13:08:26.874Z,6.13
2022-08-17T13:10:59.164Z,3.42
2022-08-17T13:13:27.524Z,3.45
2022-08-17T13:15:58.468Z,3.70
2022-08-17T13:18:33.256Z,3.15
2022-08-17T13:21:00.964Z,3.03
2022-08-17T13:23:32.383Z,3.35
2022-08-17T13:26:03.208Z,3.58
2022-08-17T13:28:36.007Z,3.75
2022-08-17T13:31:23.989Z,3.45
2022-08-17T13:33:50.977Z,3.58
2022-08-17T13:36:30.133Z,3.67
2022-08-17T13:39:14.178Z,3.53
2022-08-17T13:41:41.022Z,2.80
2022-08-17T13:44:28.136Z,3.50
2022-08-17T13:46:56.918Z,3.08
2022-08-17T13:49:24.300Z,3.25
2022-08-17T13:52:08.442Z,3.80
2022-08-17T13:54:37.291Z,3.50
2022-08-17T13:57:17.759Z,4.35
2022-08-17T13:59:53.298Z,3.92
2022-08-17T14:02:23.343Z,3.38
2022-08-17T14:04:54.457Z,3.70
2022-08-17T14:07:32.439Z,3.58
2022-08-17T14:09:59.224Z,3.65
2022-08-17T14:12:27.216Z,4.60
2022-08-17T14:14:56.298Z,4.03
2022-08-17T14:17:23.917Z,3.75
2022-08-17T14:19:51.022Z,3.50
2022-08-17T14:22:23.874Z,3.83
2022-08-17T14:24:51.296Z,19.90
2022-08-17T14:27:19.356Z,5.88
2022-08-17T14:29:46.725Z,3.42
2022-08-17T14:32:19.132Z,3.45
2022-08-17T14:34:46.375Z,4.70
2022-08-17T14:37:13.353Z,4.07
2022-08-17T14:39:40.340Z,4.25
2022-08-17T14:42:07.260Z,4.55
2022-08-17T14:44:34.080Z,4.07
2022-08-17T14:47:00.890Z,3.53
2022-08-17T14:49:28.022Z,5.72
2022-08-17T14:51:54.912Z,3.90
2022-08-17T14:54:33.290Z,4.15
2022-08-17T14:57:17.700Z,5.15
2022-08-17T14:59:53.199Z,4.85
2022-08-17T15:02:22.989Z,7.20
2022-08-17T15:05:01.626Z,7.45
2022-08-17T15:07:30.428Z,4.38
2022-08-17T15:10:00.405Z,6.65
2022-08-17T15:12:32.258Z,8.73
2022-08-17T15:15:01.018Z,6.65
2022-08-17T15:17:45.212Z,6.57
2022-08-17T15:20:15.122Z,4.43
2022-08-17T15:22:42.840Z,4.47
2022-08-17T15:25:10.473Z,5.55
2022-08-17T15:27:37.312Z,5.18
2022-08-17T15:30:05.662Z,3.50
2022-08-17T15:32:38.001Z,3.50
2022-08-17T15:35:05.808Z,4.53
2022-08-17T15:37:32.558Z,3.75
2022-08-17T15:40:02.505Z,4.70
2022-08-17T15:42:29.501Z,4.30
2022-08-17T15:44:56.869Z,4.88
2022-08-17T15:47:24.397Z,4.75
2022-08-17T15:49:53.583Z,5.28
2022-08-17T15:52:27.804Z,4.05
2022-08-17T15:54:56.103Z,8.63
2022-08-17T15:57:25.777Z,7.55
2022-08-17T15:59:58.522Z,6.65
2022-08-17T16:03:44.913Z,4.23
2022-08-17T16:05:18.957Z,6.13
2022-08-17T16:07:46.966Z,4.47
2022-08-17T16:10:18.626Z,4.32
2022-08-17T16:12:46.683Z,6.17
2022-08-17T16:15:14.028Z,5.10
2022-08-17T16:17:41.440Z,6.43
2022-08-17T16:20:20.678Z,6.67
2022-08-17T16:22:48.715Z,4.43
2022-08-17T16:25:19.984Z,4.33
2022-08-17T16:27:48.109Z,4.30
2022-08-17T16:30:17.505Z,4.23
2022-08-17T16:32:45.035Z,5.47
2022-08-17T16:35:17.379Z,4.90
2022-08-17T16:37:45.622Z,4.00
2022-08-17T16:40:13.596Z,4.60
2022-08-17T16:42:41.085Z,5.00
2022-08-17T16:45:10.808Z,4.13
2022-08-17T16:47:38.149Z,5.77
2022-08-17T16:50:06.369Z,9.60
2022-08-17T16:52:33.523Z,5.00
2022-08-17T16:55:01.388Z,4.47
2022-08-17T16:57:28.462Z,3.90
2022-08-17T16:59:55.680Z,5.13
2022-08-17T17:02:30.413Z,5.20
2022-08-17T17:05:04.558Z,6.60
2022-08-17T17:07:37.375Z,5.83
2022-08-17T17:10:12.395Z,5.93
2022-08-17T17:13:01.054Z,4.90
2022-08-17T17:15:32.643Z,5.10
2022-08-17T17:18:06.737Z,4.03
2022-08-17T17:20:38.884Z,4.00
2022-08-17T17:23:12.172Z,8.53
2022-08-17T17:25:57.189Z,4.13
2022-08-17T17:28:24.725Z,4.30
2022-08-17T17:31:07.946Z,6.73
2022-08-17T17:33:53.224Z,6.17
2022-08-17T17:36:29.321Z,5.63
2022-08-17T17:39:00.063Z,4.43
2022-08-17T17:41:33.096Z,3.87
2022-08-17T17:44:07.476Z,4.30
2022-08-17T17:46:37.915Z,8.87
2022-08-17T17:49:06.022Z,5.63
2022-08-17T17:52:09.418Z,6.93
2022-08-17T17:54:22.657Z,5.27
2022-08-17T17:56:58.822Z,5.20
2022-08-17T17:59:28.777Z,6.80
2022-08-17T18:02:06.856Z,5.37
2022-08-17T18:04:41.832Z,7.73
2022-08-17T18:07:23.568Z,6.27
2022-08-17T18:09:53.759Z,6.03
2022-08-17T18:12:34.435Z,7.77
2022-08-17T18:15:01.148Z,6.17
2022-08-17T18:17:29.868Z,5.83
2022-08-17T18:19:59.362Z,8.10
2022-08-17T18:22:27.665Z,6.43
2022-08-17T18:24:58.742Z,5.03
2022-08-17T18:27:32.186Z,9.97
2022-08-17T18:30:21.690Z,5.60
2022-08-17T18:32:48.675Z,8.13
2022-08-17T18:35:18.328Z,5.43
2022-08-17T18:37:48.303Z,8.57
2022-08-17T18:40:18.998Z,7.13
2022-08-17T18:42:50.074Z,9.13
2022-08-17T18:45:33.255Z,4.93
2022-08-17T18:48:00.486Z,7.83
2022-08-17T18:50:33.512Z,6.43
2022-08-17T18:53:18.941Z,5.87
2022-08-17T18:55:45.788Z,5.37
2022-08-17T18:58:20.884Z,4.80
2022-08-17T19:00:49.048Z,5.77
2022-08-17T19:03:15.935Z,5.67
2022-08-17T19:05:44.226Z,8.43
2022-08-17T19:08:22.993Z,5.73
2022-08-17T19:10:58.340Z,5.47
2022-08-17T19:13:34.160Z,6.13
2022-08-17T19:16:17.505Z,7.73
2022-08-17T19:18:50.432Z,6.37
2022-08-17T19:21:17.236Z,8.03
2022-08-17T19:23:53.899Z,7.27
2022-08-17T19:26:51.325Z,6.40
2022-08-17T19:29:19.528Z,10.00
2022-08-17T19:31:49.997Z,8.37
2022-08-17T19:34:30.309Z,6.20
2022-08-17T19:37:08.786Z,8.43
2022-08-17T19:40:24.390Z,9.77
2022-08-17T19:43:02.585Z,7.87
2022-08-17T19:45:29.542Z,8.87
2022-08-17T19:48:03.243Z,7.53
2022-08-17T19:50:45.233Z,12.50
2022-08-17T19:53:15.172Z,6.20
2022-08-17T19:55:56.216Z,7.17
2022-08-17T19:58:22.959Z,8.23
2022-08-17T20:00:51.661Z,10.83
2022-08-17T20:03:18.502Z,9.03
2022-08-17T20:06:10.771Z,7.43
2022-08-17T20:08:38.606Z,5.00
2022-08-17T20:11:09.718Z,7.83
2022-08-17T20:13:40.287Z,6.50
2022-08-17T20:16:08.060Z,5.30
2022-08-17T20:18:43.963Z,6.57
2022-08-17T20:21:19.917Z,5.77
2022-08-17T20:23:59.668Z,7.47
2022-08-17T20:26:28.335Z,7.50
2022-08-17T20:29:06.785Z,7.50
2022-08-17T20:31:39.535Z,7.20
2022-08-17T20:34:25.100Z,10.33
2022-08-17T20:37:01.727Z,9.00
2022-08-17T20:39:39.831Z,7.17
2022-08-17T20:42:23.767Z,11.83
2022-08-17T20:44:52.961Z,7.83
2022-08-17T20:47:27.391Z,6.23
2022-08-17T20:50:08.079Z,7.37
2022-08-17T20:52:51.997Z,9.07
2022-08-17T20:55:35.243Z,7.10
2022-08-17T20:58:14.285Z,7.43
2022-08-17T21:00:56.378Z,6.07
2022-08-17T21:03:23.645Z,7.70
2022-08-17T21:06:17.065Z,8.50
2022-08-17T21:08:45.865Z,9.20
2022-08-17T21:12:02.294Z,5.80
2022-08-17T21:14:15.141Z,5.50
2022-08-17T21:16:45.142Z,6.30
2022-08-17T21:19:22.166Z,9.57
2022-08-17T21:22:08.299Z,8.13
2022-08-17T21:24:47.682Z,6.37
2022-08-17T21:27:17.653Z,9.33
2022-08-17T21:30:11.875Z,10.87
2022-08-17T21:32:41.177Z,6.90
2022-08-17T21:35:28.084Z,6.97
2022-08-17T21:38:02.934Z,8.10
2022-08-17T21:40:31.094Z,7.90
2022-08-17T21:43:00.845Z,7.00
2022-08-17T21:45:36.815Z,9.43
2022-08-17T21:48:14.938Z,7.43
2022-08-17T21:50:44.027Z,11.10
2022-08-17T21:53:21.504Z,8.17
2022-08-17T21:55:48.551Z,8.33
2022-08-17T21:58:32.886Z,8.90
2022-08-17T22:01:10.780Z,6.20
2022-08-17T22:03:38.573Z,6.87
2022-08-17T22:06:19.109Z,6.37
2022-08-17T22:08:57.323Z,6.63
2022-08-17T22:11:24.400Z,7.20
2022-08-17T22:13:51.389Z,9.10
2022-08-17T22:16:28.455Z,8.17
2022-08-17T22:18:58.264Z,6.47
2022-08-17T22:21:25.270Z,6.57
2022-08-17T22:24:07.634Z,6.77
2022-08-17T22:26:53.445Z,6.40
2022-08-17T22:29:39.201Z,8.57
2022-08-17T22:32:06.450Z,7.77
2022-08-17T22:34:33.280Z,8.17
2022-08-17T22:37:18.846Z,6.00
2022-08-17T22:39:46.994Z,6.43
2022-08-17T22:42:14.569Z,5.57
2022-08-17T22:44:48.559Z,5.10
2022-08-17T22:47:16.290Z,6.00
2022-08-17T22:49:56.399Z,8.17
2022-08-17T22:52:29.178Z,7.80
2022-08-17T22:55:24.270Z,8.43
2022-08-17T22:58:09.643Z,6.70
2022-08-17T23:00:39.413Z,7.17
2022-08-17T23:03:09.172Z,5.50
2022-08-17T23:05:36.493Z,6.40
2022-08-17T23:08:04.454Z,6.63
2022-08-17T23:10:31.696Z,6.83
2022-08-17T23:12:59.849Z,5.90
2022-08-17T23:15:33.056Z,6.73
2022-08-17T23:18:04.639Z,6.10
2022-08-17T23:20:34.555Z,9.33
2022-08-17T23:23:01.557Z,6.57
2022-08-17T23:25:30.285Z,8.40
2022-08-17T23:27:58.358Z,6.80
2022-08-17T23:30:25.652Z,7.10
2022-08-17T23:32:53.569Z,7.87
2022-08-17T23:35:40.148Z,5.80
2022-08-17T23:38:11.884Z,5.80
2022-08-17T23:40:39.333Z,9.30
2022-08-17T23:43:17.565Z,7.17
2022-08-17T23:45:52.885Z,5.20
2022-08-17T23:48:28.597Z,6.33
2022-08-17T23:51:05.738Z,5.77
2022-08-17T23:53:34.541Z,5.40
2022-08-17T23:56:09.118Z,5.20
2022-08-17T23:58:38.529Z,5.23
